createdAt,value
2019-03-28T00:01:41.031Z,68.10
2019-03-28T00:06:50.271Z,67.74
2019-03-28T00:12:01.608Z,67.36
2019-03-28T00:17:09.437Z,67.20
2019-03-28T00:22:28.389Z,67.62
2019-03-28T00:27:36.869Z,67.05
2019-03-28T00:32:45.180Z,67.30
2019-03-28T00:37:53.330Z,67.52
2019-03-28T00:43:07.892Z,67.94
2019-03-28T00:48:12.873Z,68.90
2019-03-28T00:53:20.994Z,69.94
2019-03-28T00:58:31.605Z,70.20
2019-03-28T01:03:39.022Z,70.10
2019-03-28T01:08:46.920Z,70.30
2019-03-28T01:13:54.971Z,69.32
2019-03-28T01:19:06.640Z,70.29
2019-03-28T01:24:15.154Z,71.46
2019-03-28T01:29:23.998Z,71.86
2019-03-28T01:34:33.777Z,72.85
2019-03-28T01:39:41.473Z,74.71
2019-03-28T01:44:50.056Z,72.85
2019-03-28T01:50:00.654Z,73.19
2019-03-28T01:55:09.866Z,73.28
2019-03-28T02:00:18.668Z,73.27
2019-03-28T02:05:30.523Z,73.01
2019-03-28T02:10:39.616Z,73.17
2019-03-28T02:15:47.711Z,73.51
2019-03-28T02:20:57.589Z,72.59
2019-03-28T02:26:07.866Z,73.38
2019-03-28T02:31:16.702Z,72.94
2019-03-28T02:36:25.155Z,72.47
2019-03-28T02:41:42.163Z,73.61
2019-03-28T02:46:56.239Z,72.83
2019-03-28T02:52:02.866Z,73.36
2019-03-28T02:57:10.458Z,73.62
2019-03-28T03:02:18.508Z,72.94
2019-03-28T03:07:26.952Z,73.67
2019-03-28T03:12:34.615Z,74.16
2019-03-28T03:17:42.845Z,73.57
2019-03-28T03:22:51.173Z,73.97
2019-03-28T03:27:59.921Z,73.89
2019-03-28T03:33:10.993Z,73.40
2019-03-28T03:38:21.645Z,74.19
2019-03-28T03:43:29.516Z,74.12
2019-03-28T03:48:38.785Z,73.33
2019-03-28T03:53:46.786Z,74.17
2019-03-28T03:58:54.364Z,73.96
2019-03-28T04:04:05.379Z,74.44
2019-03-28T04:09:13.460Z,73.92
2019-03-28T04:14:21.070Z,74.74
2019-03-28T04:19:32.054Z,74.61
2019-03-28T04:24:42.991Z,75.43
2019-03-28T04:29:52.052Z,76.19
2019-03-28T04:34:59.933Z,76.13
2019-03-28T04:40:11.601Z,74.99
2019-03-28T04:45:19.236Z,76.16
2019-03-28T04:50:27.215Z,76.92
2019-03-28T04:55:35.528Z,76.66
2019-03-28T05:00:43.432Z,76.28
2019-03-28T05:05:51.487Z,76.19
2019-03-28T05:11:01.124Z,75.82
2019-03-28T05:16:10.193Z,75.10
2019-03-28T05:21:18.278Z,75.69
2019-03-28T05:26:26.085Z,75.90
2019-03-28T05:31:34.401Z,75.81
2019-03-28T05:36:43.047Z,74.85
2019-03-28T05:41:51.132Z,75.10
2019-03-28T05:46:58.917Z,75.12
2019-03-28T05:52:11.749Z,74.35
2019-03-28T05:57:18.944Z,75.13
2019-03-28T06:02:26.661Z,75.35
2019-03-28T06:07:34.630Z,75.45
2019-03-28T06:12:42.758Z,75.04
2019-03-28T06:17:50.682Z,75.00
2019-03-28T06:22:58.881Z,75.54
2019-03-28T06:28:11.274Z,74.91
2019-03-28T06:33:20.112Z,75.96
2019-03-28T06:38:28.487Z,75.02
2019-03-28T06:43:36.607Z,75.87
2019-03-28T06:48:44.349Z,75.14
2019-03-28T06:53:57.063Z,75.20
2019-03-28T06:59:06.103Z,74.17
2019-03-28T07:04:18.356Z,74.22
2019-03-28T07:09:28.558Z,75.19
2019-03-28T07:14:36.714Z,74.15
2019-03-28T07:19:44.882Z,74.18
2019-03-28T07:24:53.241Z,73.54
2019-03-28T07:30:01.497Z,74.00
2019-03-28T07:35:13.845Z,74.54
2019-03-28T07:40:22.835Z,75.32
2019-03-28T07:45:34.188Z,74.04
2019-03-28T07:50:42.521Z,74.53
2019-03-28T07:55:54.884Z,75.28
2019-03-28T08:01:05.960Z,74.86
2019-03-28T08:06:20.662Z,75.04
2019-03-28T08:11:35.567Z,75.75
2019-03-28T08:16:44.356Z,74.34
2019-03-28T08:21:54.066Z,74.40
2019-03-28T08:27:07.007Z,74.92
2019-03-28T08:32:17.770Z,75.30
2019-03-28T08:37:28.086Z,75.48
2019-03-28T08:42:36.159Z,76.22
2019-03-28T08:47:46.966Z,74.75
2019-03-28T08:52:55.070Z,75.87
2019-03-28T08:58:05.038Z,75.80
2019-03-28T09:03:12.912Z,75.08
2019-03-28T09:08:24.239Z,73.71
2019-03-28T09:13:32.370Z,75.91
2019-03-28T09:18:40.793Z,74.85
2019-03-28T09:23:48.866Z,73.64
2019-03-28T09:28:56.842Z,74.20
2019-03-28T09:34:04.665Z,75.04
2019-03-28T09:39:13.734Z,74.46
2019-03-28T09:44:22.225Z,73.45
2019-03-28T09:49:33.938Z,75.65
2019-03-28T09:54:49.247Z,75.31
2019-03-28T10:00:03.484Z,75.63
2019-03-28T10:05:15.543Z,74.04
2019-03-28T10:10:31.612Z,74.07
2019-03-28T10:15:43.889Z,74.39
2019-03-28T10:20:56.473Z,75.28
2019-03-28T10:26:09.112Z,74.83
2019-03-28T10:31:19.592Z,74.69
2019-03-28T10:36:27.935Z,73.28
2019-03-28T10:41:39.859Z,74.66
2019-03-28T10:46:49.174Z,74.19
2019-03-28T10:52:03.959Z,74.43
2019-03-28T10:57:15.275Z,73.21
2019-03-28T11:02:22.036Z,73.26
2019-03-28T11:07:31.391Z,73.08
2019-03-28T11:12:39.412Z,73.40
2019-03-28T11:17:47.808Z,72.98
2019-03-28T11:22:56.000Z,73.26
2019-03-28T11:34:03.703Z,72.26
2019-03-28T11:39:12.252Z,75.10
2019-03-28T11:44:23.357Z,75.20
2019-03-28T11:49:32.036Z,73.16
2019-03-28T12:11:59.226Z,74.26
2019-03-28T12:17:07.774Z,73.24
2019-03-28T12:28:50.866Z,75.56
2019-03-28T12:33:59.612Z,74.08
2019-03-28T12:39:15.455Z,74.58
2019-03-28T12:44:24.861Z,74.20
2019-03-28T12:49:33.186Z,73.23
2019-03-28T12:54:44.077Z,72.40
2019-03-28T12:59:53.447Z,73.09
2019-03-28T13:05:03.132Z,73.95
2019-03-28T13:10:12.083Z,76.90
2019-03-28T13:15:20.214Z,76.79
2019-03-28T13:20:30.745Z,74.02
2019-03-28T13:31:00.428Z,74.46
2019-03-28T13:36:09.285Z,72.93
2019-03-28T13:41:17.536Z,73.03
2019-03-28T13:46:26.827Z,73.53
2019-03-28T13:51:34.348Z,72.85
2019-03-28T13:56:41.837Z,73.40
2019-03-28T14:01:53.781Z,74.35
2019-03-28T14:07:03.732Z,75.23
2019-03-28T14:12:11.755Z,75.17
2019-03-28T14:17:21.839Z,74.20
2019-03-28T14:22:29.655Z,73.07
2019-03-28T14:27:37.780Z,74.17
2019-03-28T15:07:09.857Z,77.40
2019-03-28T15:12:17.913Z,77.65
2019-03-28T15:17:26.069Z,76.90
2019-03-28T15:22:34.178Z,77.50
2019-03-28T15:27:42.249Z,77.10
2019-03-28T15:32:57.332Z,75.44
2019-03-28T15:38:10.484Z,75.29
2019-03-28T15:43:24.429Z,75.34
2019-03-28T15:48:40.921Z,75.06
2019-03-28T15:53:50.949Z,75.95
2019-03-28T15:58:58.925Z,76.14
2019-03-28T16:04:09.577Z,74.91
2019-03-28T16:09:21.617Z,75.35
2019-03-28T16:14:32.969Z,76.43
2019-03-28T16:19:41.200Z,76.52
2019-03-28T16:24:48.820Z,78.12
2019-03-28T16:29:57.004Z,78.16
2019-03-28T16:35:06.983Z,78.01
2019-03-28T16:40:14.924Z,76.80
2019-03-28T16:45:24.225Z,76.96
2019-03-28T16:50:32.453Z,76.18
2019-03-28T16:55:43.481Z,76.77
2019-03-28T17:00:59.122Z,78.46
2019-03-28T17:06:08.438Z,76.98
2019-03-28T17:11:17.971Z,76.53
2019-03-28T17:16:26.797Z,76.70
2019-03-28T17:21:34.929Z,77.10
2019-03-28T17:26:42.661Z,77.18
2019-03-28T17:31:54.154Z,76.23
2019-03-28T17:37:03.865Z,76.13
2019-03-28T17:42:11.440Z,77.21
2019-03-28T17:47:19.299Z,76.71
2019-03-28T17:52:28.688Z,76.65
2019-03-28T17:57:40.064Z,78.42
2019-03-28T18:02:49.590Z,78.31
2019-03-28T18:52:51.639Z,76.67
2019-03-28T18:58:00.881Z,77.75
2019-03-28T19:03:12.356Z,77.62
2019-03-28T19:08:21.688Z,77.00
2019-03-28T19:13:31.247Z,76.24
2019-03-28T19:18:40.529Z,77.06
2019-03-28T19:23:49.105Z,76.61
2019-03-28T19:29:05.040Z,76.58
2019-03-28T19:34:15.454Z,76.02
2019-03-28T19:39:32.232Z,75.86
2019-03-28T19:44:45.270Z,75.20
2019-03-28T19:49:55.353Z,75.01
2019-03-28T19:55:14.346Z,74.56
2019-03-28T20:00:27.384Z,75.65
2019-03-28T20:05:47.357Z,74.45
2019-03-28T20:10:51.179Z,74.86
2019-03-28T20:15:59.817Z,76.26
2019-03-28T20:21:14.988Z,75.74
2019-03-28T20:26:27.911Z,75.22
2019-03-28T20:31:36.784Z,74.84
2019-03-28T20:36:48.367Z,74.60
2019-03-28T20:41:56.862Z,74.50
2019-03-28T20:47:08.002Z,74.51
2019-03-28T20:52:15.919Z,75.59
2019-03-28T20:57:29.391Z,75.79
2019-03-28T21:02:37.709Z,76.39
2019-03-28T21:07:45.508Z,76.85
2019-03-28T21:12:56.785Z,75.45
2019-03-28T21:18:08.087Z,75.37
2019-03-28T21:23:18.979Z,74.99
2019-03-28T21:28:27.037Z,74.50
2019-03-28T21:33:37.178Z,73.84
2019-03-28T21:38:44.867Z,74.11
2019-03-28T21:43:52.839Z,75.13
2019-03-28T21:49:00.907Z,74.82
2019-03-28T21:54:08.859Z,74.24
2019-03-28T21:59:21.040Z,73.08
2019-03-28T22:04:29.559Z,73.88
2019-03-28T22:09:39.689Z,73.87
2019-03-28T22:14:48.306Z,73.78
2019-03-28T22:19:57.310Z,73.30
2019-03-28T22:25:06.811Z,73.22
2019-03-28T22:30:15.678Z,73.66
2019-03-28T22:35:27.220Z,73.62
2019-03-28T22:40:35.216Z,73.77
2019-03-28T22:45:43.898Z,73.71
2019-03-28T22:50:52.076Z,73.66
2019-03-28T22:55:59.780Z,73.86
2019-03-28T23:01:10.257Z,73.79
2019-03-28T23:06:19.351Z,73.75
2019-03-28T23:11:29.965Z,73.74
2019-03-28T23:16:38.256Z,73.94
2019-03-28T23:21:45.945Z,73.54
2019-03-28T23:26:53.658Z,73.75
2019-03-28T23:32:04.155Z,73.04
2019-03-28T23:37:24.238Z,73.46
2019-03-28T23:42:22.840Z,73.57
2019-03-28T23:47:32.692Z,73.07
2019-03-28T23:52:40.360Z,74.56
2019-03-28T23:57:48.625Z,73.87
